createdAt,value
2022-09-30T00:00:40.199Z,74.90
2022-09-30T00:03:43.668Z,75.00
2022-09-30T00:06:46.454Z,75.10
2022-09-30T00:09:48.787Z,75.00
2022-09-30T00:12:52.669Z,75.10
2022-09-30T00:15:54.858Z,75.10
2022-09-30T00:18:58.652Z,75.10
2022-09-30T00:22:00.763Z,75.10
2022-09-30T00:25:04.134Z,75.20
2022-09-30T00:28:08.048Z,75.30
2022-09-30T00:31:15.010Z,75.20
2022-09-30T00:34:17.499Z,75.30
2022-09-30T00:37:19.864Z,75.30
2022-09-30T00:40:23.000Z,75.40
2022-09-30T00:43:51.658Z,75.40
2022-09-30T00:46:56.463Z,75.40
2022-09-30T00:50:11.251Z,75.50
2022-09-30T00:53:29.955Z,75.50
2022-09-30T00:56:37.503Z,75.60
2022-09-30T00:59:58.418Z,75.70
2022-09-30T01:03:02.418Z,75.60
2022-09-30T01:06:04.987Z,75.70
2022-09-30T01:09:07.764Z,75.90
2022-09-30T01:12:17.009Z,76.00
2022-09-30T01:15:23.831Z,76.00
2022-09-30T01:18:51.602Z,76.10
2022-09-30T01:22:12.239Z,76.00
2022-09-30T01:25:51.560Z,76.00
2022-09-30T01:29:15.416Z,76.10
2022-09-30T01:32:31.079Z,76.20
2022-09-30T01:35:57.748Z,76.20
2022-09-30T01:39:11.791Z,76.30
2022-09-30T01:42:18.383Z,76.30
2022-09-30T01:45:32.722Z,76.30
2022-09-30T01:48:57.678Z,76.30
2022-09-30T01:52:26.104Z,76.40
2022-09-30T01:55:55.033Z,76.50
2022-09-30T01:59:03.145Z,76.40
2022-09-30T02:02:15.392Z,76.40
2022-09-30T02:06:06.856Z,76.40
2022-09-30T02:09:14.927Z,76.60
2022-09-30T02:12:21.372Z,76.70
2022-09-30T02:15:28.478Z,76.70
2022-09-30T02:18:42.339Z,76.70
2022-09-30T02:21:48.344Z,76.70
2022-09-30T02:24:56.826Z,76.80
2022-09-30T02:28:05.302Z,76.80
2022-09-30T02:31:11.371Z,76.80
2022-09-30T02:34:20.220Z,76.80
2022-09-30T02:37:28.564Z,76.80
2022-09-30T02:40:37.265Z,76.90
2022-09-30T02:43:42.238Z,76.80
2022-09-30T02:46:50.569Z,76.90
2022-09-30T02:50:11.797Z,77.00
2022-09-30T02:53:40.276Z,77.00
2022-09-30T02:56:47.872Z,77.00
2022-09-30T02:59:52.769Z,77.00
2022-09-30T03:03:00.836Z,77.10
2022-09-30T03:06:03.810Z,77.10
2022-09-30T03:09:08.062Z,77.00
2022-09-30T03:12:54.467Z,77.00
2022-09-30T03:16:17.783Z,77.00
2022-09-30T03:19:37.152Z,77.10
2022-09-30T03:22:42.376Z,77.10
2022-09-30T03:25:50.688Z,77.10
2022-09-30T03:29:01.276Z,77.20
2022-09-30T03:32:20.105Z,77.20
2022-09-30T03:35:31.535Z,77.30
2022-09-30T03:39:03.656Z,77.10
2022-09-30T03:42:22.717Z,77.30
2022-09-30T03:45:37.295Z,77.30
2022-09-30T03:48:41.854Z,77.20
2022-09-30T03:51:44.128Z,77.40
2022-09-30T03:54:59.083Z,77.30
2022-09-30T03:58:01.247Z,77.50
2022-09-30T04:01:03.533Z,77.30
2022-09-30T04:04:06.087Z,77.30
2022-09-30T04:07:10.356Z,77.40
2022-09-30T04:10:12.672Z,77.40
2022-09-30T04:13:14.838Z,77.50
2022-09-30T04:16:16.914Z,77.50
2022-09-30T04:19:18.978Z,77.40
2022-09-30T04:22:25.504Z,77.40
2022-09-30T04:25:29.466Z,78.10
2022-09-30T04:28:32.174Z,77.50
2022-09-30T04:31:34.334Z,77.50
2022-09-30T04:34:37.193Z,77.60
2022-09-30T04:37:47.056Z,77.60
2022-09-30T04:40:51.007Z,77.50
2022-09-30T04:43:53.158Z,77.60
2022-09-30T04:46:55.333Z,77.50
2022-09-30T04:49:57.583Z,77.70
2022-09-30T04:52:59.758Z,77.60
2022-09-30T04:56:02.415Z,77.70
2022-09-30T04:59:04.602Z,77.60
2022-09-30T05:02:06.842Z,77.60
2022-09-30T05:05:09.345Z,77.60
2022-09-30T05:08:11.670Z,77.70
2022-09-30T05:11:17.893Z,77.60
2022-09-30T05:14:20.052Z,77.70
2022-09-30T05:17:22.312Z,77.60
2022-09-30T05:20:24.765Z,77.60
2022-09-30T05:23:30.511Z,77.70
2022-09-30T05:26:33.099Z,77.70
2022-09-30T05:29:35.541Z,77.80
2022-09-30T05:32:37.875Z,77.60
2022-09-30T05:35:43.625Z,77.70
2022-09-30T05:38:45.729Z,77.70
2022-09-30T05:41:47.854Z,77.70
2022-09-30T05:44:50.011Z,77.70
2022-09-30T05:47:55.947Z,77.70
2022-09-30T05:51:01.746Z,77.70
2022-09-30T05:54:04.007Z,77.70
2022-09-30T05:57:07.953Z,77.70
2022-09-30T06:00:10.859Z,77.70
2022-09-30T06:03:16.986Z,77.80
2022-09-30T06:06:21.845Z,77.60
2022-09-30T06:09:24.174Z,77.70
2022-09-30T06:12:28.839Z,77.70
2022-09-30T06:15:31.338Z,77.70
2022-09-30T06:18:34.086Z,77.70
2022-09-30T06:21:36.194Z,77.80
2022-09-30T06:24:38.335Z,77.80
2022-09-30T06:27:46.057Z,77.80
2022-09-30T06:30:48.555Z,77.80
2022-09-30T06:33:53.498Z,77.90
2022-09-30T06:36:55.726Z,77.90
2022-09-30T06:39:57.860Z,77.90
2022-09-30T06:43:01.429Z,77.90
2022-09-30T06:46:13.939Z,78.00
2022-09-30T06:49:19.736Z,78.00
2022-09-30T06:52:21.989Z,78.20
2022-09-30T06:55:24.506Z,78.20
2022-09-30T06:58:26.688Z,78.30
2022-09-30T07:01:30.112Z,79.10
2022-09-30T07:04:32.409Z,78.30
2022-09-30T07:07:37.439Z,78.40
2022-09-30T07:10:39.903Z,78.40
2022-09-30T07:13:43.851Z,78.30
2022-09-30T07:16:46.584Z,78.40
2022-09-30T07:19:48.740Z,79.10
2022-09-30T07:22:51.076Z,78.40
2022-09-30T07:25:56.938Z,78.40
2022-09-30T07:29:00.360Z,78.40
2022-09-30T07:32:02.639Z,78.40
2022-09-30T07:35:06.301Z,78.40
2022-09-30T07:38:09.052Z,79.20
2022-09-30T07:41:17.102Z,78.50
2022-09-30T07:44:20.393Z,78.80
2022-09-30T07:47:22.943Z,78.80
2022-09-30T07:50:25.206Z,78.70
2022-09-30T07:53:27.331Z,78.80
2022-09-30T07:56:45.546Z,78.80
2022-09-30T07:59:52.184Z,78.90
2022-09-30T08:02:54.363Z,79.00
2022-09-30T08:05:56.551Z,79.00
2022-09-30T08:08:59.329Z,79.00
2022-09-30T08:12:04.024Z,78.90
2022-09-30T08:15:09.728Z,79.00
2022-09-30T08:18:11.934Z,78.80
2022-09-30T08:21:14.420Z,78.90
2022-09-30T08:24:17.026Z,78.90
2022-09-30T08:27:19.129Z,78.70
2022-09-30T08:30:21.481Z,78.80
2022-09-30T08:33:23.564Z,78.80
2022-09-30T08:36:27.080Z,78.80
2022-09-30T08:39:29.180Z,78.80
2022-09-30T08:42:59.420Z,78.80
2022-09-30T08:46:09.333Z,78.80
2022-09-30T08:49:32.736Z,78.80
2022-09-30T08:52:49.143Z,78.80
2022-09-30T08:55:54.813Z,78.70
2022-09-30T08:59:31.959Z,78.70
2022-09-30T09:02:38.226Z,78.80
2022-09-30T09:05:57.578Z,78.70
2022-09-30T09:09:06.723Z,78.70
2022-09-30T09:12:41.899Z,78.60
2022-09-30T09:16:08.158Z,78.60
2022-09-30T09:19:15.690Z,78.80
2022-09-30T09:22:21.257Z,78.80
2022-09-30T09:25:28.318Z,78.60
2022-09-30T09:28:48.154Z,78.70
2022-09-30T09:31:54.690Z,78.80
2022-09-30T09:35:07.055Z,78.80
2022-09-30T09:38:25.872Z,78.80
2022-09-30T09:41:59.174Z,78.80
2022-09-30T09:45:16.539Z,78.80
2022-09-30T09:48:19.333Z,78.90
2022-09-30T09:51:47.450Z,78.90
2022-09-30T09:54:53.036Z,79.00
2022-09-30T09:58:14.352Z,79.10
2022-09-30T10:01:33.042Z,79.10
2022-09-30T10:04:38.950Z,79.10
2022-09-30T10:07:41.208Z,79.10
2022-09-30T10:10:55.330Z,79.30
2022-09-30T10:13:59.861Z,79.20
2022-09-30T10:17:04.138Z,79.20
2022-09-30T10:20:07.470Z,79.30
2022-09-30T10:23:27.702Z,79.30
2022-09-30T10:26:29.783Z,79.40
2022-09-30T10:29:35.146Z,79.20
2022-09-30T10:32:37.350Z,79.40
2022-09-30T10:36:10.549Z,79.40
2022-09-30T10:39:38.638Z,79.50
2022-09-30T10:42:45.757Z,79.60
2022-09-30T10:46:07.021Z,79.50
2022-09-30T10:49:25.158Z,79.70
2022-09-30T10:52:32.587Z,79.60
2022-09-30T10:55:42.108Z,79.60
2022-09-30T10:58:52.243Z,79.70
2022-09-30T11:02:06.144Z,79.70
2022-09-30T11:05:23.061Z,79.90
2022-09-30T11:08:29.305Z,79.70
2022-09-30T11:11:44.290Z,79.80
2022-09-30T11:14:55.599Z,80.00
2022-09-30T11:18:00.351Z,79.80
2022-09-30T11:21:10.870Z,80.10
2022-09-30T11:24:44.400Z,80.00
2022-09-30T11:27:57.554Z,80.10
2022-09-30T11:31:16.218Z,80.00
2022-09-30T11:34:33.853Z,80.10
2022-09-30T11:37:55.403Z,80.20
2022-09-30T11:41:11.529Z,80.10
2022-09-30T11:44:32.043Z,80.20
2022-09-30T11:47:49.516Z,80.50
2022-09-30T11:51:30.605Z,80.40
2022-09-30T11:54:44.730Z,80.50
2022-09-30T11:57:50.115Z,80.40
2022-09-30T12:01:10.191Z,80.70
2022-09-30T12:04:12.163Z,80.70
2022-09-30T12:07:23.683Z,80.50
2022-09-30T12:10:40.110Z,80.60
2022-09-30T12:13:51.905Z,80.90
2022-09-30T12:16:56.886Z,81.10
2022-09-30T12:20:07.471Z,81.10
2022-09-30T12:23:32.779Z,81.20
2022-09-30T12:26:35.822Z,81.10
2022-09-30T12:30:01.316Z,81.30
2022-09-30T12:33:12.637Z,81.40
2022-09-30T12:36:55.575Z,82.10
2022-09-30T12:40:07.760Z,81.40
2022-09-30T12:43:57.205Z,81.30
2022-09-30T12:47:36.041Z,81.50
2022-09-30T12:50:46.125Z,81.30
2022-09-30T12:53:50.403Z,81.40
2022-09-30T12:57:03.432Z,81.40
2022-09-30T13:00:17.669Z,81.50
2022-09-30T13:03:20.608Z,81.80
2022-09-30T13:06:24.533Z,81.80
2022-09-30T13:09:36.196Z,81.90
2022-09-30T13:12:45.785Z,82.10
2022-09-30T13:15:48.126Z,82.20
2022-09-30T13:18:53.220Z,82.30
2022-09-30T13:22:17.937Z,82.20
2022-09-30T13:25:20.431Z,82.40
2022-09-30T13:28:22.643Z,82.50
2022-09-30T13:31:26.570Z,82.60
2022-09-30T13:34:32.831Z,82.50
2022-09-30T13:37:38.339Z,82.30
2022-09-30T13:41:05.671Z,82.50
2022-09-30T13:44:24.386Z,82.60
2022-09-30T13:47:43.234Z,82.50
2022-09-30T13:50:52.772Z,82.50
2022-09-30T13:54:00.225Z,82.70
2022-09-30T13:57:06.479Z,82.80
2022-09-30T14:00:13.883Z,82.50
2022-09-30T14:03:16.407Z,82.80
2022-09-30T14:07:00.463Z,82.80
2022-09-30T14:10:18.312Z,83.00
2022-09-30T14:13:47.479Z,83.20
2022-09-30T14:16:56.067Z,83.00
2022-09-30T14:20:33.976Z,83.10
2022-09-30T14:23:37.125Z,83.10
2022-09-30T14:26:55.069Z,83.00
2022-09-30T14:30:21.181Z,83.10
2022-09-30T14:33:28.438Z,83.40
2022-09-30T14:36:31.218Z,83.20
2022-09-30T14:39:34.195Z,83.20
2022-09-30T14:42:41.265Z,83.40
2022-09-30T14:45:46.802Z,83.60
2022-09-30T14:48:50.778Z,83.70
2022-09-30T14:51:53.646Z,83.50
2022-09-30T14:54:58.158Z,83.80
2022-09-30T14:58:19.343Z,83.80
2022-09-30T15:01:23.257Z,83.70
2022-09-30T15:04:30.192Z,84.00
2022-09-30T15:07:32.864Z,83.80
2022-09-30T15:10:36.360Z,84.10
2022-09-30T15:13:40.605Z,84.10
2022-09-30T15:16:52.387Z,84.20
2022-09-30T15:19:56.099Z,84.20
2022-09-30T15:23:06.587Z,84.10
2022-09-30T15:26:13.028Z,84.30
2022-09-30T15:29:16.974Z,84.20
2022-09-30T15:32:23.864Z,84.30
2022-09-30T15:35:27.086Z,84.30
2022-09-30T15:38:32.056Z,84.40
2022-09-30T15:41:43.581Z,84.40
2022-09-30T15:44:46.179Z,84.60
2022-09-30T15:47:58.138Z,84.40
2022-09-30T15:51:01.628Z,84.70
2022-09-30T15:54:16.146Z,84.60
2022-09-30T15:57:47.118Z,84.50
2022-09-30T16:00:52.441Z,84.60
2022-09-30T16:04:00.883Z,84.30
2022-09-30T16:07:09.729Z,84.50
2022-09-30T16:10:20.434Z,84.60
2022-09-30T16:13:26.610Z,84.70
2022-09-30T16:16:32.507Z,84.40
2022-09-30T16:19:35.517Z,84.50
2022-09-30T16:22:40.957Z,84.40
2022-09-30T16:25:44.560Z,84.60
2022-09-30T16:28:47.798Z,84.70
2022-09-30T16:31:53.763Z,84.80
2022-09-30T16:34:57.875Z,84.80
2022-09-30T16:38:06.895Z,84.80
2022-09-30T16:41:13.600Z,84.80
2022-09-30T16:44:16.118Z,84.70
2022-09-30T16:47:21.202Z,84.80
2022-09-30T16:50:43.821Z,84.70
2022-09-30T16:53:48.147Z,84.60
2022-09-30T16:56:50.800Z,85.00
2022-09-30T16:59:53.378Z,84.60
2022-09-30T17:02:56.075Z,85.00
2022-09-30T17:06:01.184Z,84.80
2022-09-30T17:09:06.740Z,85.00
2022-09-30T17:12:12.258Z,85.00
2022-09-30T17:15:15.194Z,85.00
2022-09-30T17:18:18.233Z,84.90
2022-09-30T17:21:23.098Z,84.90
2022-09-30T17:24:25.662Z,84.80
2022-09-30T17:27:29.878Z,85.00
2022-09-30T17:30:33.649Z,84.90
2022-09-30T17:33:38.962Z,84.90
2022-09-30T17:36:41.866Z,85.10
2022-09-30T17:39:44.411Z,85.00
2022-09-30T17:43:05.346Z,85.10
2022-09-30T17:46:08.027Z,84.90
2022-09-30T17:49:12.519Z,85.20
2022-09-30T17:52:15.692Z,85.00
2022-09-30T17:55:18.302Z,85.30
2022-09-30T17:58:20.816Z,85.10
2022-09-30T18:01:23.671Z,85.30
2022-09-30T18:04:29.450Z,85.20
2022-09-30T18:07:32.092Z,85.30
2022-09-30T18:10:37.067Z,85.30
2022-09-30T18:13:39.562Z,85.20
2022-09-30T18:16:42.660Z,85.30
2022-09-30T18:19:45.428Z,85.20
2022-09-30T18:22:48.126Z,85.10
2022-09-30T18:25:56.232Z,85.30
2022-09-30T18:28:58.903Z,85.40
2022-09-30T18:32:02.463Z,85.30
2022-09-30T18:35:09.968Z,85.10
2022-09-30T18:38:14.922Z,85.40
2022-09-30T18:41:17.733Z,85.30
2022-09-30T18:44:20.341Z,85.50
2022-09-30T18:47:23.248Z,85.30
2022-09-30T18:50:28.485Z,85.40
2022-09-30T18:53:34.536Z,85.30
2022-09-30T18:56:37.213Z,85.50
2022-09-30T18:59:40.209Z,85.20
2022-09-30T19:02:44.782Z,85.40
2022-09-30T19:05:47.427Z,85.50
2022-09-30T19:08:50.242Z,85.50
2022-09-30T19:11:53.002Z,85.60
2022-09-30T19:14:55.624Z,85.50
2022-09-30T19:17:58.746Z,85.60
2022-09-30T19:21:10.184Z,85.50
2022-09-30T19:24:12.681Z,85.60
2022-09-30T19:27:15.236Z,85.70
2022-09-30T19:30:17.913Z,85.80
2022-09-30T19:33:26.249Z,85.70
2022-09-30T19:36:32.239Z,85.70
2022-09-30T19:39:45.383Z,85.60
2022-09-30T19:42:49.715Z,85.80
2022-09-30T19:46:04.435Z,85.80
2022-09-30T19:49:07.142Z,85.80
2022-09-30T19:52:20.008Z,85.90
2022-09-30T19:55:25.387Z,85.90
2022-09-30T19:58:32.571Z,85.90
2022-09-30T20:01:35.693Z,86.70
2022-09-30T20:04:39.733Z,88.10
2022-09-30T20:07:42.290Z,88.50
2022-09-30T20:10:45.101Z,89.40
2022-09-30T20:14:12.423Z,89.60
2022-09-30T20:17:14.715Z,89.70
2022-09-30T20:20:35.594Z,90.10
2022-09-30T20:23:39.125Z,90.20
2022-09-30T20:26:43.370Z,90.30
2022-09-30T20:29:46.000Z,90.40
2022-09-30T20:32:48.626Z,90.50
2022-09-30T20:35:51.699Z,90.50
2022-09-30T20:38:59.212Z,90.70
2022-09-30T20:42:01.443Z,90.80
2022-09-30T20:45:06.316Z,90.70
2022-09-30T20:48:08.672Z,90.80
2022-09-30T20:51:15.417Z,90.90
2022-09-30T20:54:17.959Z,90.90
2022-09-30T20:57:20.587Z,90.80
2022-09-30T21:00:24.200Z,91.00
2022-09-30T21:03:29.551Z,90.90
2022-09-30T21:06:33.427Z,91.00
2022-09-30T21:09:37.141Z,91.00
2022-09-30T21:12:39.730Z,91.10
2022-09-30T21:15:42.878Z,91.00
2022-09-30T21:18:46.096Z,91.10
2022-09-30T21:21:48.878Z,91.00
2022-09-30T21:24:51.405Z,91.00
2022-09-30T21:27:53.997Z,91.10
2022-09-30T21:30:56.716Z,91.10
2022-09-30T21:34:00.049Z,91.10
2022-09-30T21:37:02.671Z,91.20
2022-09-30T21:40:05.450Z,91.10
2022-09-30T21:43:08.048Z,91.00
2022-09-30T21:46:12.379Z,91.10
2022-09-30T21:49:14.918Z,91.20
2022-09-30T21:52:17.304Z,91.10
2022-09-30T21:55:19.660Z,91.00
2022-09-30T21:58:24.040Z,91.00
2022-09-30T22:01:26.252Z,91.10
2022-09-30T22:04:28.451Z,91.10
2022-09-30T22:07:33.172Z,91.10
2022-09-30T22:10:35.588Z,91.00
2022-09-30T22:13:40.927Z,91.10
2022-09-30T22:16:44.558Z,91.10
2022-09-30T22:19:46.867Z,91.00
2022-09-30T22:22:48.981Z,91.00
2022-09-30T22:25:51.106Z,91.00
2022-09-30T22:28:59.539Z,91.00
2022-09-30T22:32:02.546Z,91.10
2022-09-30T22:35:23.874Z,91.10
2022-09-30T22:38:26.352Z,91.10
2022-09-30T22:41:28.813Z,91.10
2022-09-30T22:44:35.271Z,91.10
2022-09-30T22:47:39.180Z,91.00
2022-09-30T22:50:41.358Z,91.10
2022-09-30T22:53:43.492Z,91.00
2022-09-30T22:56:46.069Z,91.10
2022-09-30T22:59:48.286Z,91.10
2022-09-30T23:02:52.928Z,91.00
2022-09-30T23:06:02.887Z,91.10
2022-09-30T23:09:06.272Z,91.10
2022-09-30T23:12:09.333Z,91.10
2022-09-30T23:15:11.786Z,91.10
2022-09-30T23:18:17.169Z,91.00
2022-09-30T23:21:19.881Z,91.10
2022-09-30T23:24:22.025Z,91.10
2022-09-30T23:27:24.111Z,91.10
2022-09-30T23:30:27.929Z,91.10
2022-09-30T23:33:30.732Z,91.10
2022-09-30T23:36:36.387Z,91.10
2022-09-30T23:39:38.529Z,91.20
2022-09-30T23:42:40.683Z,91.10
2022-09-30T23:45:43.446Z,91.00
2022-09-30T23:48:46.025Z,91.00
2022-09-30T23:51:48.243Z,91.30
2022-09-30T23:54:50.409Z,91.10
2022-09-30T23:57:52.637Z,90.90
